Time;durP1;ratioP1;P1;durP2;ratioP2;P2;SDS_P1;SDS_P2;PMS_P1;PMS_P2;Temp;Humidity;BMP_temperature;BMP_pressure;BME280_temperature;BME280_humidity;BME280_pressure;Samples;Min_cycle;Max_cycle;Signal;HPM_P1;HPM_P2
2024/03/16 00:01:10;;;;;;;0.05;0.05;;;18.80;43.80;;;;;;5031298;28;20207;-47
2024/03/16 00:03:39;;;;;;;0.10;0.10;;;18.80;43.70;;;;;;5025632;28;20196;-47
2024/03/16 00:06:09;;;;;;;0.00;0.00;;;18.90;43.70;;;;;;5011157;28;20259;-49
2024/03/16 00:08:39;;;;;;;0.00;0.00;;;18.90;43.60;;;;;;5010907;28;20201;-53
2024/03/16 00:11:08;;;;;;;0.00;0.00;;;19.00;43.60;;;;;;5018093;28;20215;-47
2024/03/16 00:13:38;;;;;;;0.10;0.10;;;19.00;43.70;;;;;;5028044;28;20204;-47
2024/03/16 00:16:08;;;;;;;0.08;0.08;;;19.00;43.80;;;;;;5027314;28;20282;-47
2024/03/16 00:18:37;;;;;;;0.00;0.00;;;19.10;43.90;;;;;;5028216;28;20212;-46
2024/03/16 00:21:07;;;;;;;0.00;0.00;;;19.20;43.90;;;;;;5027706;28;20289;-48
2024/03/16 00:23:37;;;;;;;0.10;0.10;;;19.20;43.70;;;;;;5028066;28;20200;-48
2024/03/16 00:26:07;;;;;;;0.10;0.10;;;19.20;43.50;;;;;;5030639;28;20584;-48
2024/03/16 00:28:37;;;;;;;0.10;0.10;;;19.20;43.40;;;;;;5031551;28;20204;-50
2024/03/16 00:31:10;;;;;;;0.10;0.10;;;19.30;43.30;;;;;;5023713;28;20200;-53
2024/03/16 00:33:40;;;;;;;0.00;0.00;;;19.30;43.30;;;;;;5011818;28;20231;-47
2024/03/16 00:36:10;;;;;;;0.10;0.10;;;19.40;43.30;;;;;;5011117;28;20636;-47
2024/03/16 00:38:39;;;;;;;0.10;0.10;;;19.40;43.20;;;;;;5017170;28;20206;-49
2024/03/16 00:41:09;;;;;;;0.10;0.10;;;19.40;43.20;;;;;;5030819;28;20996;-48
2024/03/16 00:43:39;;;;;;;0.05;0.05;;;19.40;43.10;;;;;;5026561;28;20200;-55
2024/03/16 00:46:08;;;;;;;0.10;0.10;;;19.50;43.20;;;;;;5011142;28;20605;-52
2024/03/16 00:48:38;;;;;;;0.03;0.03;;;19.50;43.30;;;;;;5017222;28;20560;-53
2024/03/16 00:51:08;;;;;;;0.10;0.10;;;19.60;43.20;;;;;;5030760;28;20633;-53
2024/03/16 00:53:41;;;;;;;0.10;0.10;;;19.60;43.00;;;;;;5030250;28;20191;-49
2024/03/16 00:56:12;;;;;;;0.10;0.10;;;19.60;42.90;;;;;;5031333;28;20224;-48
2024/03/16 00:58:41;;;;;;;0.00;0.00;;;19.60;42.70;;;;;;5027743;28;20200;-53
2024/03/16 01:01:12;;;;;;;0.10;0.10;;;19.70;42.70;;;;;;5030552;28;20207;-51
2024/03/16 01:03:41;;;;;;;0.00;0.00;;;19.70;42.60;;;;;;5030330;28;20203;-56
2024/03/16 01:06:11;;;;;;;0.10;0.10;;;19.80;42.70;;;;;;5029809;28;20206;-55
2024/03/16 01:08:41;;;;;;;0.10;0.10;;;19.80;42.50;;;;;;5030753;28;20199;-53
2024/03/16 01:11:11;;;;;;;0.00;0.00;;;19.80;42.70;;;;;;5016208;28;20568;-52
2024/03/16 01:13:40;;;;;;;0.08;0.08;;;19.90;43.30;;;;;;5010383;28;20207;-54
2024/03/16 01:16:10;;;;;;;0.00;0.00;;;19.90;42.50;;;;;;5010598;28;20228;-49
2024/03/16 01:18:40;;;;;;;0.10;0.10;;;19.90;42.50;;;;;;5010043;28;20196;-55
2024/03/16 01:21:10;;;;;;;0.10;0.10;;;20.00;42.60;;;;;;5018539;28;20212;-50
2024/03/16 01:23:39;;;;;;;0.00;0.00;;;20.00;42.30;;;;;;5026227;28;20215;-51
2024/03/16 01:26:09;;;;;;;0.10;0.10;;;20.00;42.20;;;;;;5030252;28;20265;-54
2024/03/16 01:28:39;;;;;;;0.05;0.05;;;20.00;42.20;;;;;;5030094;28;20203;-50
2024/03/16 01:31:11;;;;;;;0.00;0.00;;;20.10;42.20;;;;;;5030491;28;20196;-54
2024/03/16 01:33:41;;;;;;;0.08;0.08;;;20.10;42.10;;;;;;5010648;28;20211;-52
2024/03/16 01:36:11;;;;;;;0.00;0.00;;;20.10;42.20;;;;;;5009849;28;20231;-56
2024/03/16 01:38:41;;;;;;;0.00;0.00;;;20.20;42.20;;;;;;5010709;28;20231;-53
2024/03/16 01:41:10;;;;;;;0.10;0.10;;;20.20;42.00;;;;;;5010189;28;20211;-52
2024/03/16 01:43:40;;;;;;;0.00;0.00;;;20.20;42.00;;;;;;5010611;28;20199;-51
2024/03/16 01:46:15;;;;;;;0.10;0.10;;;20.20;42.00;;;;;;5023670;28;20250;-55
2024/03/16 01:48:45;;;;;;;0.10;0.10;;;20.30;42.00;;;;;;5028806;28;20428;-55
2024/03/16 01:51:15;;;;;;;0.10;0.10;;;20.30;41.60;;;;;;5025485;28;20300;-57
2024/03/16 01:53:44;;;;;;;0.00;0.00;;;20.30;41.50;;;;;;5029634;28;20256;-59
2024/03/16 01:56:14;;;;;;;0.10;0.10;;;20.30;41.60;;;;;;5029635;28;20641;-51
2024/03/16 01:58:45;;;;;;;0.10;0.10;;;20.40;41.60;;;;;;5029479;28;20249;-55
2024/03/16 02:01:15;;;;;;;0.10;0.10;;;20.40;41.40;;;;;;5031313;28;20982;-51
2024/03/16 02:03:46;;;;;;;0.10;0.10;;;20.40;41.20;;;;;;5022128;28;20559;-49
2024/03/16 02:06:16;;;;;;;0.05;0.05;;;20.40;41.00;;;;;;5014651;28;20403;-54
2024/03/16 02:08:45;;;;;;;0.10;0.10;;;20.40;40.90;;;;;;5013838;28;20582;-57
2024/03/16 02:11:13;;;;;;;0.00;0.00;;;20.40;40.90;;;;;;5013679;28;20204;-59
2024/03/16 02:13:43;;;;;;;0.10;0.10;;;20.50;41.00;;;;;;5013245;28;20594;-56
2024/03/16 02:16:13;;;;;;;0.00;0.00;;;20.50;40.90;;;;;;5012702;28;20223;-56
2024/03/16 02:18:42;;;;;;;0.00;0.00;;;20.50;40.80;;;;;;5014168;28;20603;-54
2024/03/16 02:21:12;;;;;;;0.10;0.10;;;20.60;41.00;;;;;;5014141;28;20659;-56
2024/03/16 02:23:42;;;;;;;0.08;0.08;;;20.60;40.80;;;;;;5013846;28;20196;-59
2024/03/16 02:26:11;;;;;;;0.15;0.15;;;20.70;40.90;;;;;;5031640;28;20203;-53
2024/03/16 02:28:41;;;;;;;0.08;0.08;;;20.70;40.90;;;;;;5033365;28;20214;-54
2024/03/16 02:31:16;;;;;;;0.10;0.10;;;20.70;40.70;;;;;;5026002;28;20201;-59
2024/03/16 02:33:46;;;;;;;0.00;0.00;;;20.70;40.70;;;;;;5013711;28;20229;-48
2024/03/16 02:36:16;;;;;;;0.00;0.00;;;20.70;40.20;;;;;;5013055;28;20284;-53
2024/03/16 02:38:46;;;;;;;0.08;0.08;;;20.70;39.90;;;;;;5013689;28;20211;-56
2024/03/16 02:41:16;;;;;;;0.10;0.10;;;20.80;40.00;;;;;;5015374;28;20683;-53
2024/03/16 02:43:46;;;;;;;0.10;0.10;;;20.80;39.80;;;;;;5028519;28;20227;-55
2024/03/16 02:46:16;;;;;;;0.10;0.10;;;20.80;39.70;;;;;;5031354;28;20300;-51
2024/03/16 02:48:45;;;;;;;0.10;0.10;;;20.80;40.00;;;;;;5028825;28;20196;-53
2024/03/16 02:51:15;;;;;;;0.10;0.10;;;20.80;40.20;;;;;;5013406;28;20205;-52
2024/03/16 02:53:45;;;;;;;0.10;0.10;;;20.80;40.30;;;;;;5013885;28;20207;-54
2024/03/16 02:56:14;;;;;;;0.10;0.10;;;20.80;40.10;;;;;;5028034;28;20270;-55
2024/03/16 02:58:44;;;;;;;0.03;0.03;;;20.90;40.20;;;;;;5029175;28;20201;-51
2024/03/16 03:01:14;;;;;;;0.10;0.10;;;20.80;39.90;;;;;;5028636;28;20200;-51
2024/03/16 03:03:44;;;;;;;0.00;0.00;;;20.90;40.00;;;;;;5028662;28;20227;-55
2024/03/16 03:06:14;;;;;;;0.10;0.10;;;20.90;39.80;;;;;;5028956;28;20204;-56
2024/03/16 03:08:45;;;;;;;0.03;0.03;;;20.90;39.60;;;;;;5014998;28;20196;-60
2024/03/16 03:11:14;;;;;;;0.00;0.00;;;20.90;39.50;;;;;;5012981;28;20202;-62
2024/03/16 03:13:44;;;;;;;0.10;0.10;;;20.90;39.00;;;;;;5013407;28;20200;-60
2024/03/16 03:16:18;;;;;;;0.08;0.08;;;20.80;38.40;;;;;;5033152;28;20226;-59
2024/03/16 03:18:48;;;;;;;0.00;0.00;;;20.80;38.10;;;;;;5032894;28;20245;-46
2024/03/16 03:21:18;;;;;;;0.10;0.10;;;20.60;37.60;;;;;;5028702;28;20204;-49
2024/03/16 03:23:47;;;;;;;0.05;0.05;;;20.60;37.60;;;;;;5012479;28;20208;-50
2024/03/16 03:26:17;;;;;;;0.10;0.10;;;20.50;37.90;;;;;;5032472;28;20242;-50
2024/03/16 03:28:47;;;;;;;0.00;0.00;;;20.50;38.20;;;;;;5030798;28;20196;-50
2024/03/16 03:31:20;;;;;;;0.00;0.00;;;20.50;38.50;;;;;;5029382;28;20234;-56
2024/03/16 03:33:49;;;;;;;0.00;0.00;;;20.50;38.30;;;;;;5012726;28;20209;-50
2024/03/16 03:36:19;;;;;;;0.10;0.10;;;20.50;38.50;;;;;;5029421;28;20212;-45
2024/03/16 03:38:48;;;;;;;0.20;0.20;;;20.50;38.70;;;;;;5032040;28;20207;-48
2024/03/16 03:41:18;;;;;;;0.10;0.10;;;20.50;38.90;;;;;;5032462;28;20575;-47
2024/03/16 03:43:57;;;;;;;0.10;0.10;;;20.60;38.90;;;;;;5032627;28;20531;-48
2024/03/16 03:46:39;;;;;;;0.10;0.10;;;20.60;39.10;;;;;;5032837;28;20206;-46
2024/03/16 03:49:25;;;;;;;0.00;0.00;;;20.60;39.10;;;;;;5015292;28;20270;-50
2024/03/16 03:51:57;;;;;;;0.10;0.10;;;20.70;39.10;;;;;;5015035;28;20231;-53
2024/03/16 03:54:26;;;;;;;0.00;0.00;;;20.70;39.20;;;;;;5017147;28;20211;-49
2024/03/16 03:56:56;;;;;;;0.03;0.03;;;20.70;39.20;;;;;;5027448;28;20277;-46
2024/03/16 03:59:26;;;;;;;0.00;0.00;;;20.80;39.40;;;;;;5010850;28;20203;-50
2024/03/16 04:01:55;;;;;;;0.10;0.10;;;20.80;39.30;;;;;;5012460;28;20216;-50
2024/03/16 04:04:25;;;;;;;0.00;0.00;;;20.80;39.30;;;;;;5019317;28;20656;-50
2024/03/16 04:06:55;;;;;;;0.00;0.00;;;20.80;39.30;;;;;;5031674;28;20200;-45
2024/03/16 04:09:24;;;;;;;0.10;0.10;;;20.90;39.40;;;;;;5031995;28;20200;-47
2024/03/16 04:11:54;;;;;;;0.00;0.00;;;20.80;39.50;;;;;;5031872;28;20215;-50
2024/03/16 04:14:24;;;;;;;0.00;0.00;;;20.90;39.50;;;;;;5031828;28;20679;-48
2024/03/16 04:16:53;;;;;;;0.00;0.00;;;20.90;39.40;;;;;;5031514;28;20718;-46
2024/03/16 04:19:23;;;;;;;0.00;0.00;;;20.90;39.40;;;;;;5030744;28;20201;-51
2024/03/16 04:21:53;;;;;;;0.10;0.10;;;20.90;39.40;;;;;;5031647;28;20216;-47
2024/03/16 04:24:23;;;;;;;0.03;0.03;;;20.90;39.40;;;;;;5034861;28;20199;-50
2024/03/16 04:26:53;;;;;;;0.10;0.10;;;21.00;39.50;;;;;;5035288;28;20249;-54
2024/03/16 04:29:24;;;;;;;0.00;0.00;;;21.00;39.40;;;;;;5034861;28;20199;-50
2024/03/16 04:31:53;;;;;;;0.00;0.00;;;21.00;39.30;;;;;;5035203;28;20269;-56
2024/03/16 04:34:25;;;;;;;0.00;0.00;;;21.00;39.20;;;;;;5034007;28;20203;-54
2024/03/16 04:36:55;;;;;;;0.00;0.00;;;21.00;39.30;;;;;;5035080;28;20223;-50
2024/03/16 04:39:25;;;;;;;0.10;0.10;;;21.00;39.30;;;;;;5034899;28;20211;-54
2024/03/16 04:41:55;;;;;;;0.05;0.05;;;21.00;39.20;;;;;;5034953;28;20216;-49
2024/03/16 04:44:24;;;;;;;0.10;0.10;;;21.00;39.30;;;;;;5033257;28;20191;-56
2024/03/16 04:46:54;;;;;;;0.00;0.00;;;21.00;39.10;;;;;;5034552;28;20203;-54
2024/03/16 04:49:24;;;;;;;0.00;0.00;;;21.00;39.30;;;;;;5034458;28;20249;-49
2024/03/16 04:51:53;;;;;;;0.10;0.10;;;21.00;39.20;;;;;;5034724;28;20215;-53
2024/03/16 04:54:23;;;;;;;0.00;0.00;;;21.10;39.20;;;;;;5034852;28;20253;-55
2024/03/16 04:56:53;;;;;;;0.00;0.00;;;21.10;39.10;;;;;;5034355;28;20224;-49
2024/03/16 04:59:22;;;;;;;0.00;0.00;;;21.00;39.20;;;;;;5034119;28;20214;-49
2024/03/16 05:01:52;;;;;;;0.00;0.00;;;21.00;39.20;;;;;;5033933;28;20219;-52
2024/03/16 05:04:21;;;;;;;0.10;0.10;;;21.00;39.00;;;;;;5026489;28;20667;-58
2024/03/16 05:06:51;;;;;;;0.00;0.00;;;21.10;39.00;;;;;;5014370;28;20656;-51
2024/03/16 05:09:21;;;;;;;0.05;0.05;;;21.10;39.00;;;;;;5013930;28;20200;-50
2024/03/16 05:11:50;;;;;;;0.00;0.00;;;21.10;39.00;;;;;;5014169;28;20222;-56
2024/03/16 05:14:20;;;;;;;0.03;0.03;;;21.10;39.00;;;;;;5014475;28;20584;-49
2024/03/16 05:16:50;;;;;;;0.10;0.10;;;21.10;38.90;;;;;;5026163;28;20229;-49
2024/03/16 05:19:19;;;;;;;0.00;0.00;;;21.20;39.00;;;;;;5034069;28;20566;-51
2024/03/16 05:21:49;;;;;;;0.10;0.10;;;21.20;38.90;;;;;;5030096;28;20235;-53
2024/03/16 05:24:19;;;;;;;0.08;0.08;;;21.20;39.00;;;;;;5033703;28;20199;-51
2024/03/16 05:26:48;;;;;;;0.05;0.05;;;21.20;39.10;;;;;;5030720;28;20192;-53
2024/03/16 05:29:18;;;;;;;0.10;0.10;;;21.20;39.10;;;;;;5014667;28;20246;-54
2024/03/16 05:31:47;;;;;;;0.10;0.10;;;21.30;38.80;;;;;;5014280;28;20263;-56
2024/03/16 05:34:17;;;;;;;0.10;0.10;;;21.20;38.60;;;;;;5014182;28;20200;-50
2024/03/16 05:36:47;;;;;;;0.00;0.00;;;21.20;38.50;;;;;;5013333;28;20215;-54
2024/03/16 05:39:16;;;;;;;0.10;0.10;;;21.20;38.50;;;;;;5014638;28;20246;-48
2024/03/16 05:41:47;;;;;;;0.00;0.00;;;21.30;38.50;;;;;;5014702;28;20223;-49
2024/03/16 05:44:17;;;;;;;0.00;0.00;;;21.30;38.50;;;;;;5014457;28;20200;-51
2024/03/16 05:46:46;;;;;;;0.10;0.10;;;21.30;38.50;;;;;;5014162;28;20203;-52
2024/03/16 05:49:16;;;;;;;0.10;0.10;;;21.30;38.40;;;;;;5014309;28;20196;-49
2024/03/16 05:51:46;;;;;;;0.03;0.03;;;21.20;38.40;;;;;;5014007;28;20254;-49
2024/03/16 05:54:15;;;;;;;0.08;0.08;;;21.20;38.10;;;;;;5017087;28;20210;-49
2024/03/16 05:56:45;;;;;;;0.10;0.10;;;21.20;37.90;;;;;;5034240;28;20249;-49
2024/03/16 05:59:15;;;;;;;0.10;0.10;;;21.20;37.80;;;;;;5033363;28;20214;-57
2024/03/16 06:01:45;;;;;;;0.10;0.10;;;21.20;37.80;;;;;;5033211;28;20566;-50
2024/03/16 06:04:15;;;;;;;0.03;0.03;;;21.20;37.70;;;;;;5033589;28;20203;-50
2024/03/16 06:06:46;;;;;;;0.10;0.10;;;21.20;37.70;;;;;;5034026;28;20199;-55
2024/03/16 06:09:16;;;;;;;0.10;0.10;;;21.20;37.70;;;;;;5034210;28;20260;-49
2024/03/16 06:11:45;;;;;;;0.00;0.00;;;21.20;37.60;;;;;;5033807;28;20205;-57
2024/03/16 06:14:15;;;;;;;0.10;0.10;;;21.20;37.50;;;;;;5033088;28;20249;-52
2024/03/16 06:16:45;;;;;;;0.10;0.10;;;21.20;37.40;;;;;;5033069;28;20195;-53
2024/03/16 06:19:14;;;;;;;0.00;0.00;;;21.20;37.30;;;;;;5033970;28;20583;-53
2024/03/16 06:21:45;;;;;;;0.00;0.00;;;21.20;37.30;;;;;;5033616;28;20222;-50
2024/03/16 06:24:14;;;;;;;0.10;0.10;;;21.10;37.30;;;;;;5033665;28;20240;-53
2024/03/16 06:26:52;;;;;;;0.00;0.00;;;21.20;37.30;;;;;;5033217;28;20277;-55
2024/03/16 06:29:25;;;;;;;0.00;0.00;;;21.10;37.40;;;;;;5034213;28;20196;-51
2024/03/16 06:32:05;;;;;;;0.08;0.08;;;21.10;37.30;;;;;;5033622;28;20306;-49
2024/03/16 06:34:34;;;;;;;0.10;0.10;;;21.10;37.30;;;;;;5034155;28;20651;-47
2024/03/16 06:37:04;;;;;;;0.10;0.10;;;21.10;37.30;;;;;;5033172;28;20199;-54
2024/03/16 06:39:34;;;;;;;0.00;0.00;;;21.10;37.30;;;;;;5032489;28;20443;-48
2024/03/16 06:42:04;;;;;;;0.10;0.10;;;21.10;37.30;;;;;;5032766;28;20219;-48
2024/03/16 06:44:33;;;;;;;0.00;0.00;;;21.10;37.30;;;;;;5033709;28;20202;-50
2024/03/16 06:47:03;;;;;;;0.00;0.00;;;21.10;37.40;;;;;;5033659;28;20199;-53
2024/03/16 06:49:32;;;;;;;0.00;0.00;;;21.00;37.40;;;;;;5037093;28;20659;-47
2024/03/16 06:52:02;;;;;;;0.00;0.00;;;21.00;37.50;;;;;;5037089;28;20211;-48
2024/03/16 06:54:32;;;;;;;0.00;0.00;;;21.00;37.60;;;;;;5036882;28;20674;-51
2024/03/16 06:57:02;;;;;;;0.00;0.00;;;21.00;37.70;;;;;;5037235;28;20199;-47
2024/03/16 06:59:32;;;;;;;0.00;0.00;;;21.00;37.60;;;;;;5036822;28;20238;-49
2024/03/16 07:02:01;;;;;;;0.10;0.10;;;21.00;37.50;;;;;;5036305;28;20212;-51
2024/03/16 07:04:31;;;;;;;0.08;0.08;;;21.00;37.60;;;;;;5036563;28;20195;-48
2024/03/16 07:07:01;;;;;;;0.00;0.00;;;21.00;37.60;;;;;;5032824;28;20584;-55
2024/03/16 07:09:30;;;;;;;0.00;0.00;;;21.00;37.50;;;;;;5017022;28;20210;-48
2024/03/16 07:12:00;;;;;;;0.10;0.10;;;21.00;37.50;;;;;;5016839;28;20274;-49
2024/03/16 07:14:30;;;;;;;0.10;0.10;;;20.90;37.50;;;;;;5016597;28;20200;-50
2024/03/16 07:16:59;;;;;;;0.00;0.00;;;20.90;37.50;;;;;;5026386;28;20251;-46
2024/03/16 07:19:30;;;;;;;0.10;0.10;;;21.00;37.60;;;;;;5035406;28;20231;-55
2024/03/16 07:22:00;;;;;;;0.00;0.00;;;20.90;37.50;;;;;;5034624;28;20219;-47
2024/03/16 07:24:30;;;;;;;0.00;0.00;;;20.90;37.60;;;;;;5036349;28;20250;-46
2024/03/16 07:27:00;;;;;;;0.03;0.03;;;20.90;37.60;;;;;;5036153;28;20199;-49
2024/03/16 07:29:30;;;;;;;0.00;0.00;;;20.90;38.30;;;;;;5035949;28;20207;-51
2024/03/16 07:31:59;;;;;;;0.00;0.00;;;20.90;37.80;;;;;;5041463;23;20431;-49
2024/03/16 07:34:29;;;;;;;0.10;0.10;;;20.90;37.90;;;;;;4997030;28;20197;-50
2024/03/16 07:36:59;;;;;;;0.10;0.10;;;20.90;38.00;;;;;;4996752;28;20197;-49
2024/03/16 07:39:28;;;;;;;0.08;0.08;;;20.90;38.30;;;;;;4996489;28;20283;-50
2024/03/16 07:41:58;;;;;;;0.10;0.10;;;20.90;38.10;;;;;;4996664;28;20229;-53
2024/03/16 07:44:29;;;;;;;0.10;0.10;;;20.90;38.20;;;;;;4996360;28;20201;-47
2024/03/16 07:46:59;;;;;;;0.10;0.10;;;20.90;38.30;;;;;;4990572;28;20193;-46
2024/03/16 07:49:29;;;;;;;0.00;0.00;;;20.90;38.30;;;;;;4992834;28;20262;-49
2024/03/16 07:51:59;;;;;;;0.00;0.00;;;20.90;38.40;;;;;;4992705;28;20228;-49
2024/03/16 07:54:29;;;;;;;0.10;0.10;;;20.90;38.40;;;;;;4992410;28;20204;-49
2024/03/16 07:57:00;;;;;;;0.10;0.10;;;20.90;38.40;;;;;;4992556;28;20197;-49
2024/03/16 07:59:30;;;;;;;0.00;0.00;;;20.90;38.50;;;;;;4992102;28;20287;-49
2024/03/16 08:02:00;;;;;;;0.08;0.08;;;20.80;38.40;;;;;;4991986;28;20228;-49
2024/03/16 08:04:33;;;;;;;0.08;0.08;;;20.80;38.40;;;;;;4988908;28;20208;-54
2024/03/16 08:07:02;;;;;;;0.10;0.10;;;20.80;38.40;;;;;;4973272;28;20236;-46
2024/03/16 08:09:32;;;;;;;0.10;0.10;;;20.80;38.50;;;;;;4972606;28;20260;-50
2024/03/16 08:12:02;;;;;;;0.10;0.10;;;20.80;38.50;;;;;;4977326;28;20713;-50
2024/03/16 08:14:34;;;;;;;0.00;0.00;;;20.80;38.60;;;;;;4992222;28;20204;-50
2024/03/16 08:17:05;;;;;;;0.08;0.08;;;20.80;38.60;;;;;;4992480;28;20205;-48
2024/03/16 08:19:37;;;;;;;0.00;0.00;;;20.70;38.70;;;;;;4992101;28;20334;-48
2024/03/16 08:22:06;;;;;;;0.05;0.05;;;20.70;38.60;;;;;;4991943;28;20220;-49
2024/03/16 08:24:36;;;;;;;0.00;0.00;;;20.70;38.70;;;;;;4992181;28;20271;-49
2024/03/16 08:27:06;;;;;;;0.08;0.08;;;20.70;38.80;;;;;;4991827;28;20216;-47
2024/03/16 08:29:35;;;;;;;0.00;0.00;;;20.70;38.80;;;;;;4991541;28;20204;-50
2024/03/16 08:32:05;;;;;;;0.10;0.10;;;20.70;38.90;;;;;;5004717;22;20207;-53
2024/03/16 08:34:35;;;;;;;0.10;0.10;;;20.70;38.90;;;;;;5011226;28;20192;-52
2024/03/16 08:37:04;;;;;;;0.00;0.00;;;20.70;38.90;;;;;;5011216;28;20203;-53
2024/03/16 08:39:34;;;;;;;0.00;0.00;;;20.70;38.90;;;;;;5016091;28;20396;-51
2024/03/16 08:42:04;;;;;;;0.08;0.08;;;20.60;38.80;;;;;;5011270;28;20243;-49
2024/03/16 08:44:34;;;;;;;0.00;0.00;;;20.60;38.90;;;;;;5010783;28;20676;-55
2024/03/16 08:47:05;;;;;;;0.10;0.10;;;20.60;38.90;;;;;;5010929;28;20279;-55
2024/03/16 08:49:34;;;;;;;0.10;0.10;;;20.60;38.90;;;;;;5011240;28;20664;-48
2024/03/16 08:52:04;;;;;;;0.00;0.00;;;20.50;39.00;;;;;;5007110;28;20217;-45
2024/03/16 08:54:34;;;;;;;0.10;0.10;;;20.50;39.00;;;;;;5008333;28;20607;-55
2024/03/16 08:57:04;;;;;;;0.10;0.10;;;20.50;39.10;;;;;;5011760;28;20585;-51
2024/03/16 08:59:36;;;;;;;0.00;0.00;;;20.50;39.10;;;;;;5010619;28;20234;-52
2024/03/16 09:02:05;;;;;;;0.00;0.00;;;20.50;39.10;;;;;;5011896;28;20224;-52
2024/03/16 09:04:35;;;;;;;0.10;0.10;;;20.50;39.20;;;;;;5009765;28;20228;-53
2024/03/16 09:07:05;;;;;;;0.00;0.00;;;20.40;39.20;;;;;;5010804;28;20204;-52
2024/03/16 09:09:35;;;;;;;0.00;0.00;;;20.40;39.20;;;;;;5010779;28;20231;-48
2024/03/16 09:12:05;;;;;;;0.10;0.10;;;20.40;39.20;;;;;;5009613;28;20212;-49
2024/03/16 09:14:35;;;;;;;0.10;0.10;;;20.40;39.30;;;;;;5010523;28;20204;-51
2024/03/16 09:17:05;;;;;;;0.10;0.10;;;20.40;39.30;;;;;;5010422;28;20199;-52
2024/03/16 09:19:34;;;;;;;0.00;0.00;;;20.40;39.30;;;;;;5006698;28;20256;-50
2024/03/16 09:22:04;;;;;;;0.00;0.00;;;20.30;39.30;;;;;;4991132;28;20319;-52
2024/03/16 09:24:35;;;;;;;0.05;0.05;;;20.30;39.40;;;;;;4996154;28;20234;-50
2024/03/16 09:27:04;;;;;;;0.00;0.00;;;20.30;39.40;;;;;;5011102;28;20204;-48
2024/03/16 09:29:34;;;;;;;0.10;0.10;;;20.30;39.40;;;;;;5010306;28;20200;-49
2024/03/16 09:32:05;;;;;;;0.00;0.00;;;20.30;39.40;;;;;;5011192;28;20227;-52
2024/03/16 09:34:34;;;;;;;0.10;0.10;;;20.30;39.50;;;;;;5010457;28;20295;-48
2024/03/16 09:37:05;;;;;;;0.00;0.00;;;20.20;39.40;;;;;;5010975;28;20200;-48
2024/03/16 09:39:34;;;;;;;0.10;0.10;;;20.20;39.50;;;;;;5009161;28;20315;-52
2024/03/16 09:42:05;;;;;;;0.10;0.10;;;20.20;39.50;;;;;;5019225;28;20652;-47
2024/03/16 09:44:38;;;;;;;0.03;0.03;;;20.20;39.50;;;;;;4990435;28;20205;-52
2024/03/16 09:47:07;;;;;;;0.00;0.00;;;20.20;39.60;;;;;;5003643;28;20203;-48
2024/03/16 09:49:37;;;;;;;0.00;0.00;;;20.20;39.60;;;;;;5010155;28;20254;-46
2024/03/16 09:52:07;;;;;;;0.05;0.05;;;20.20;39.70;;;;;;5009967;28;20224;-47
2024/03/16 09:54:40;;;;;;;0.00;0.00;;;20.20;39.70;;;;;;5011551;28;20208;-48
2024/03/16 09:57:10;;;;;;;0.00;0.00;;;20.10;39.60;;;;;;5010526;28;20208;-54
2024/03/16 09:59:39;;;;;;;0.00;0.00;;;20.10;39.70;;;;;;5009023;28;20228;-49
2024/03/16 10:02:10;;;;;;;0.00;0.00;;;20.10;39.70;;;;;;5008765;28;20224;-48
2024/03/16 10:04:40;;;;;;;0.10;0.10;;;20.10;39.80;;;;;;5009332;28;20234;-51
2024/03/16 10:07:09;;;;;;;0.00;0.00;;;20.10;39.80;;;;;;5010064;28;20204;-48
2024/03/16 10:09:39;;;;;;;0.10;0.10;;;20.10;39.90;;;;;;5010328;28;20211;-54
2024/03/16 10:12:11;;;;;;;0.08;0.08;;;20.10;39.80;;;;;;5010641;28;20274;-48
2024/03/16 10:14:41;;;;;;;0.10;0.10;;;20.00;39.80;;;;;;5009529;28;20208;-45
2024/03/16 10:17:11;;;;;;;0.00;0.00;;;20.10;39.90;;;;;;5009918;28;20609;-50
2024/03/16 10:19:41;;;;;;;0.10;0.10;;;20.00;39.90;;;;;;5009346;28;20696;-52
2024/03/16 10:22:10;;;;;;;0.00;0.00;;;20.00;39.90;;;;;;5011237;28;20707;-52
2024/03/16 10:24:40;;;;;;;0.10;0.10;;;20.00;39.90;;;;;;5014392;28;20565;-49
2024/03/16 10:27:11;;;;;;;0.10;0.10;;;19.90;40.10;;;;;;5014213;28;20204;-56
2024/03/16 10:29:41;;;;;;;0.00;0.00;;;20.00;40.00;;;;;;5013955;28;20321;-48
2024/03/16 10:32:11;;;;;;;0.00;0.00;;;20.00;40.00;;;;;;5014265;28;20228;-48
2024/03/16 10:34:40;;;;;;;0.00;0.00;;;19.90;40.00;;;;;;5013789;28;20456;-45
2024/03/16 10:37:10;;;;;;;0.05;0.05;;;19.90;40.10;;;;;;5013858;28;20660;-49
2024/03/16 10:39:40;;;;;;;0.00;0.00;;;19.90;40.10;;;;;;5012741;28;20220;-50
2024/03/16 10:42:10;;;;;;;0.10;0.10;;;19.90;40.10;;;;;;5013443;28;20212;-48
2024/03/16 10:44:46;;;;;;;0.10;0.10;;;19.90;40.10;;;;;;5013436;28;20258;-45
2024/03/16 10:47:15;;;;;;;0.08;0.08;;;19.80;40.10;;;;;;5014721;28;20204;-50
2024/03/16 10:49:45;;;;;;;0.00;0.00;;;19.80;40.20;;;;;;5013177;28;20694;-49
2024/03/16 10:52:18;;;;;;;0.08;0.08;;;19.80;40.20;;;;;;5014204;28;20223;-47
2024/03/16 10:54:48;;;;;;;0.10;0.10;;;19.80;40.20;;;;;;5013677;28;20231;-50
2024/03/16 10:57:17;;;;;;;0.10;0.10;;;19.80;40.20;;;;;;5009956;28;20193;-46
2024/03/16 10:59:47;;;;;;;0.10;0.10;;;19.80;40.30;;;;;;4998862;28;20592;-47
2024/03/16 11:02:18;;;;;;;0.00;0.00;;;19.80;40.30;;;;;;5009362;28;20235;-47
2024/03/16 11:04:55;;;;;;;0.00;0.00;;;19.80;40.30;;;;;;5009704;28;20200;-48
2024/03/16 11:07:25;;;;;;;0.10;0.10;;;19.80;40.40;;;;;;5013380;28;20196;-48
2024/03/16 11:09:56;;;;;;;0.08;0.08;;;19.70;40.30;;;;;;5012822;28;20254;-45
2024/03/16 11:12:35;;;;;;;0.00;0.00;;;19.80;40.40;;;;;;5013394;28;20279;-50
2024/03/16 11:15:38;;;;;;;0.10;0.10;;;19.70;40.40;;;;;;5012320;28;20196;-50
2024/03/16 11:18:43;;;;;;;0.00;0.00;;;19.70;40.40;;;;;;5029105;28;20324;-45
2024/03/16 11:21:20;;;;;;;0.10;0.10;;;19.70;40.40;;;;;;5006057;28;20203;-47
2024/03/16 11:23:49;;;;;;;0.08;0.08;;;19.70;40.40;;;;;;5012816;28;20306;-45
2024/03/16 11:26:41;;;;;;;0.08;0.08;;;19.60;41.00;;;;;;5013099;28;20211;-46
2024/03/16 11:29:18;;;;;;;0.00;0.00;;;19.60;40.50;;;;;;5013312;28;20231;-45
2024/03/16 11:31:48;;;;;;;0.00;0.00;;;19.60;40.50;;;;;;5013490;28;20200;-45
2024/03/16 11:34:17;;;;;;;0.03;0.03;;;19.60;40.60;;;;;;5011048;28;20566;-43
2024/03/16 11:36:47;;;;;;;0.00;0.00;;;19.60;40.50;;;;;;5012779;28;20609;-51
2024/03/16 11:39:16;;;;;;;0.00;0.00;;;19.60;40.60;;;;;;5010670;28;20223;-51
2024/03/16 11:41:46;;;;;;;0.00;0.00;;;19.60;40.60;;;;;;5012771;28;20196;-50
2024/03/16 11:44:16;;;;;;;0.00;0.00;;;19.60;40.60;;;;;;5011056;28;20200;-45
2024/03/16 11:46:46;;;;;;;0.00;0.00;;;19.60;40.60;;;;;;5009550;28;20223;-45
2024/03/16 11:49:15;;;;;;;0.10;0.10;;;19.60;40.60;;;;;;5013521;28;20528;-44
2024/03/16 11:51:45;;;;;;;0.00;0.00;;;19.60;40.70;;;;;;5015691;28;20279;-48
2024/03/16 11:54:15;;;;;;;0.10;0.10;;;19.60;40.70;;;;;;5013075;28;20254;-44
2024/03/16 11:56:45;;;;;;;0.10;0.10;;;19.50;40.70;;;;;;5014881;28;20220;-49
2024/03/16 11:59:14;;;;;;;0.00;0.00;;;19.60;40.70;;;;;;5013061;28;20216;-46
2024/03/16 12:01:43;;;;;;;0.10;0.10;;;19.50;40.70;;;;;;5015341;28;20730;-45
2024/03/16 12:04:12;;;;;;;0.00;0.00;;;19.50;40.70;;;;;;5015476;28;20281;-45
2024/03/16 12:06:42;;;;;;;0.10;0.10;;;19.50;40.70;;;;;;5015430;28;20184;-47
2024/03/16 12:09:15;;;;;;;0.08;0.08;;;19.50;40.70;;;;;;5015241;28;20206;-45
2024/03/16 12:11:48;;;;;;;0.00;0.00;;;19.50;40.70;;;;;;5016000;28;20188;-46
2024/03/16 12:14:17;;;;;;;0.10;0.10;;;19.40;40.70;;;;;;5012981;28;20193;-47
2024/03/16 12:16:47;;;;;;;0.03;0.03;;;19.50;40.80;;;;;;5014773;28;20188;-50
2024/03/16 12:19:15;;;;;;;0.00;0.00;;;19.40;40.70;;;;;;5012734;28;20244;-46
2024/03/16 12:21:45;;;;;;;0.05;0.05;;;19.40;41.40;;;;;;5015020;28;20227;-46
2024/03/16 12:24:13;;;;;;;0.10;0.10;;;19.40;40.80;;;;;;5012548;28;20200;-47
2024/03/16 12:26:43;;;;;;;0.00;0.00;;;19.40;40.80;;;;;;5014861;28;20238;-47
2024/03/16 12:29:11;;;;;;;0.10;0.10;;;19.40;40.70;;;;;;5014785;28;20203;-45
2024/03/16 12:31:40;;;;;;;0.10;0.10;;;19.40;40.80;;;;;;5014510;28;20189;-48
2024/03/16 12:34:09;;;;;;;0.10;0.10;;;19.40;40.80;;;;;;5015019;28;20223;-47
2024/03/16 12:36:39;;;;;;;0.10;0.10;;;19.40;40.80;;;;;;5014861;28;20224;-49
2024/03/16 12:39:08;;;;;;;0.10;0.10;;;19.40;40.80;;;;;;5014284;28;20215;-50
2024/03/16 12:41:38;;;;;;;0.00;0.00;;;19.40;40.80;;;;;;5012227;28;20204;-50
2024/03/16 12:44:06;;;;;;;0.00;0.00;;;19.40;40.80;;;;;;5014471;28;20243;-49
2024/03/16 12:46:35;;;;;;;0.10;0.10;;;19.40;40.80;;;;;;5011534;28;20192;-47
2024/03/16 12:49:04;;;;;;;0.00;0.00;;;19.40;40.90;;;;;;5014084;28;20196;-48
2024/03/16 12:51:35;;;;;;;0.10;0.10;;;19.40;41.50;;;;;;5013684;28;20224;-45
2024/03/16 12:54:03;;;;;;;0.00;0.00;;;19.40;40.90;;;;;;5013525;28;20700;-47
2024/03/16 12:56:37;;;;;;;0.00;0.00;;;19.30;40.90;;;;;;5014310;28;20239;-44
2024/03/16 12:59:05;;;;;;;0.00;0.00;;;19.30;40.90;;;;;;5014489;28;20304;-46
2024/03/16 13:01:34;;;;;;;0.10;0.10;;;19.30;40.90;;;;;;5010977;28;20192;-47
2024/03/16 13:04:03;;;;;;;0.03;0.03;;;19.30;40.90;;;;;;5014330;28;20212;-47